sensor_id;sensor_type;location;lat;lon;timestamp;temperature;humidity
70079;DHT22;57451;52.496;13.456;2023-07-28T00:01:26;17.80;80.90
70079;DHT22;57451;52.496;13.456;2023-07-28T00:03:54;17.80;80.70
70079;DHT22;57451;52.496;13.456;2023-07-28T00:06:21;17.80;80.60
70079;DHT22;57451;52.496;13.456;2023-07-28T00:08:50;17.80;80.50
70079;DHT22;57451;52.496;13.456;2023-07-28T00:11:18;17.90;80.70
70079;DHT22;57451;52.496;13.456;2023-07-28T00:13:45;17.90;80.90
70079;DHT22;57451;52.496;13.456;2023-07-28T00:16:13;17.90;80.80
70079;DHT22;57451;52.496;13.456;2023-07-28T00:18:41;17.90;80.70
70079;DHT22;57451;52.496;13.456;2023-07-28T00:21:09;17.90;81.30
70079;DHT22;57451;52.496;13.456;2023-07-28T00:23:36;17.90;81.40
70079;DHT22;57451;52.496;13.456;2023-07-28T00:26:05;17.90;81.20
70079;DHT22;57451;52.496;13.456;2023-07-28T00:28:33;17.90;81.40
70079;DHT22;57451;52.496;13.456;2023-07-28T00:31:00;17.80;81.20
70079;DHT22;57451;52.496;13.456;2023-07-28T00:33:28;17.80;81.30
70079;DHT22;57451;52.496;13.456;2023-07-28T00:35:56;17.80;81.30
70079;DHT22;57451;52.496;13.456;2023-07-28T00:38:25;17.80;82.10
70079;DHT22;57451;52.496;13.456;2023-07-28T00:40:56;17.80;81.30
70079;DHT22;57451;52.496;13.456;2023-07-28T00:43:26;17.80;80.70
70079;DHT22;57451;52.496;13.456;2023-07-28T00:45:53;17.80;81.00
70079;DHT22;57451;52.496;13.456;2023-07-28T00:48:22;17.90;80.90
70079;DHT22;57451;52.496;13.456;2023-07-28T00:50:50;17.80;81.60
70079;DHT22;57451;52.496;13.456;2023-07-28T00:53:19;17.90;81.70
70079;DHT22;57451;52.496;13.456;2023-07-28T00:55:46;17.90;81.90
70079;DHT22;57451;52.496;13.456;2023-07-28T00:58:14;17.80;82.20
70079;DHT22;57451;52.496;13.456;2023-07-28T01:00:43;17.80;81.90
70079;DHT22;57451;52.496;13.456;2023-07-28T01:03:10;17.80;81.90
70079;DHT22;57451;52.496;13.456;2023-07-28T01:05:43;17.80;81.80
70079;DHT22;57451;52.496;13.456;2023-07-28T01:08:16;17.90;81.90
70079;DHT22;57451;52.496;13.456;2023-07-28T01:10:46;17.80;82.10
70079;DHT22;57451;52.496;13.456;2023-07-28T01:13:13;17.90;82.40
70079;DHT22;57451;52.496;13.456;2023-07-28T01:15:42;17.90;82.10
70079;DHT22;57451;52.496;13.456;2023-07-28T01:18:10;17.90;81.90
70079;DHT22;57451;52.496;13.456;2023-07-28T01:20:38;17.90;81.50
70079;DHT22;57451;52.496;13.456;2023-07-28T01:23:09;18.00;81.50
70079;DHT22;57451;52.496;13.456;2023-07-28T01:25:49;18.00;82.20
70079;DHT22;57451;52.496;13.456;2023-07-28T01:28:18;18.00;82.40
70079;DHT22;57451;52.496;13.456;2023-07-28T01:30:46;17.90;82.10
70079;DHT22;57451;52.496;13.456;2023-07-28T01:33:14;17.90;82.40
70079;DHT22;57451;52.496;13.456;2023-07-28T01:35:41;18.00;82.00
70079;DHT22;57451;52.496;13.456;2023-07-28T01:38:09;18.00;81.90
70079;DHT22;57451;52.496;13.456;2023-07-28T01:40:36;18.00;81.90
70079;DHT22;57451;52.496;13.456;2023-07-28T01:43:04;18.00;82.20
70079;DHT22;57451;52.496;13.456;2023-07-28T01:45:32;18.00;82.00
70079;DHT22;57451;52.496;13.456;2023-07-28T01:48:00;18.00;82.10
70079;DHT22;57451;52.496;13.456;2023-07-28T01:50:27;18.00;82.00
70079;DHT22;57451;52.496;13.456;2023-07-28T01:52:55;18.00;82.00
70079;DHT22;57451;52.496;13.456;2023-07-28T01:55:22;18.00;82.10
70079;DHT22;57451;52.496;13.456;2023-07-28T01:57:54;18.10;82.00
70079;DHT22;57451;52.496;13.456;2023-07-28T02:00:21;18.10;81.80
70079;DHT22;57451;52.496;13.456;2023-07-28T02:02:51;18.10;82.00
70079;DHT22;57451;52.496;13.456;2023-07-28T02:05:19;18.10;81.90
70079;DHT22;57451;52.496;13.456;2023-07-28T02:07:47;18.10;81.60
70079;DHT22;57451;52.496;13.456;2023-07-28T02:10:14;18.10;81.70
70079;DHT22;57451;52.496;13.456;2023-07-28T02:12:42;18.10;81.50
70079;DHT22;57451;52.496;13.456;2023-07-28T02:15:09;18.20;81.80
70079;DHT22;57451;52.496;13.456;2023-07-28T02:17:37;18.10;81.70
70079;DHT22;57451;52.496;13.456;2023-07-28T02:20:07;18.10;81.70
70079;DHT22;57451;52.496;13.456;2023-07-28T02:22:40;18.10;82.10
70079;DHT22;57451;52.496;13.456;2023-07-28T02:25:07;18.10;82.00
70079;DHT22;57451;52.496;13.456;2023-07-28T02:27:35;18.10;82.10
70079;DHT22;57451;52.496;13.456;2023-07-28T02:30:03;18.10;82.20
70079;DHT22;57451;52.496;13.456;2023-07-28T02:32:31;18.10;82.40
70079;DHT22;57451;52.496;13.456;2023-07-28T02:34:59;18.10;82.60
70079;DHT22;57451;52.496;13.456;2023-07-28T02:37:28;18.10;82.50
70079;DHT22;57451;52.496;13.456;2023-07-28T02:39:55;18.20;82.50
70079;DHT22;57451;52.496;13.456;2023-07-28T02:42:22;18.20;82.40
70079;DHT22;57451;52.496;13.456;2023-07-28T02:44:51;18.20;82.30
70079;DHT22;57451;52.496;13.456;2023-07-28T02:47:18;18.20;82.10
70079;DHT22;57451;52.496;13.456;2023-07-28T02:49:45;18.20;82.20
70079;DHT22;57451;52.496;13.456;2023-07-28T02:52:13;18.20;82.20
70079;DHT22;57451;52.496;13.456;2023-07-28T02:54:42;18.20;82.20
70079;DHT22;57451;52.496;13.456;2023-07-28T02:57:09;18.20;82.40
70079;DHT22;57451;52.496;13.456;2023-07-28T02:59:41;18.20;82.50
70079;DHT22;57451;52.496;13.456;2023-07-28T03:02:09;18.20;82.70
70079;DHT22;57451;52.496;13.456;2023-07-28T03:04:36;18.20;82.80
70079;DHT22;57451;52.496;13.456;2023-07-28T03:07:16;18.20;82.60
70079;DHT22;57451;52.496;13.456;2023-07-28T03:09:48;18.20;82.20
70079;DHT22;57451;52.496;13.456;2023-07-28T03:12:16;18.20;81.90
70079;DHT22;57451;52.496;13.456;2023-07-28T03:14:43;18.20;81.70
70079;DHT22;57451;52.496;13.456;2023-07-28T03:17:10;18.30;81.80
70079;DHT22;57451;52.496;13.456;2023-07-28T03:19:38;18.30;81.60
70079;DHT22;57451;52.496;13.456;2023-07-28T03:22:05;18.30;82.00
70079;DHT22;57451;52.496;13.456;2023-07-28T03:24:33;18.20;82.20
70079;DHT22;57451;52.496;13.456;2023-07-28T03:27:01;18.20;82.20
70079;DHT22;57451;52.496;13.456;2023-07-28T03:29:29;18.30;82.30
70079;DHT22;57451;52.496;13.456;2023-07-28T03:31:56;18.20;82.50
70079;DHT22;57451;52.496;13.456;2023-07-28T03:34:24;18.20;82.50
70079;DHT22;57451;52.496;13.456;2023-07-28T03:36:52;18.20;82.60
70079;DHT22;57451;52.496;13.456;2023-07-28T03:39:19;18.20;82.60
70079;DHT22;57451;52.496;13.456;2023-07-28T03:41:48;18.30;82.50
70079;DHT22;57451;52.496;13.456;2023-07-28T03:44:17;18.30;82.50
70079;DHT22;57451;52.496;13.456;2023-07-28T03:46:46;18.30;82.40
70079;DHT22;57451;52.496;13.456;2023-07-28T03:49:14;18.20;82.50
70079;DHT22;57451;52.496;13.456;2023-07-28T03:51:41;18.30;82.40
70079;DHT22;57451;52.496;13.456;2023-07-28T03:54:09;18.30;82.30
70079;DHT22;57451;52.496;13.456;2023-07-28T03:56:36;18.30;82.40
70079;DHT22;57451;52.496;13.456;2023-07-28T03:59:04;18.30;82.50
70079;DHT22;57451;52.496;13.456;2023-07-28T04:01:34;18.30;82.30
70079;DHT22;57451;52.496;13.456;2023-07-28T04:04:01;18.30;82.20
70079;DHT22;57451;52.496;13.456;2023-07-28T04:06:39;18.30;82.50
70079;DHT22;57451;52.496;13.456;2023-07-28T04:09:08;18.30;82.50
70079;DHT22;57451;52.496;13.456;2023-07-28T04:11:35;18.30;82.50
70079;DHT22;57451;52.496;13.456;2023-07-28T04:14:03;18.30;82.40
70079;DHT22;57451;52.496;13.456;2023-07-28T04:16:30;18.40;82.50
70079;DHT22;57451;52.496;13.456;2023-07-28T04:18:59;18.30;82.10
70079;DHT22;57451;52.496;13.456;2023-07-28T04:21:27;18.30;82.20
70079;DHT22;57451;52.496;13.456;2023-07-28T04:23:54;18.30;82.70
70079;DHT22;57451;52.496;13.456;2023-07-28T04:26:23;18.30;82.90
70079;DHT22;57451;52.496;13.456;2023-07-28T04:28:57;18.30;82.90
70079;DHT22;57451;52.496;13.456;2023-07-28T04:31:25;18.30;82.80
70079;DHT22;57451;52.496;13.456;2023-07-28T04:34:05;18.40;82.70
70079;DHT22;57451;52.496;13.456;2023-07-28T04:36:51;18.40;82.50
70079;DHT22;57451;52.496;13.456;2023-07-28T04:39:23;18.40;82.30
70079;DHT22;57451;52.496;13.456;2023-07-28T04:41:51;18.40;82.40
70079;DHT22;57451;52.496;13.456;2023-07-28T04:44:19;18.50;82.40
70079;DHT22;57451;52.496;13.456;2023-07-28T04:46:48;18.50;82.20
70079;DHT22;57451;52.496;13.456;2023-07-28T04:49:17;18.50;82.20
70079;DHT22;57451;52.496;13.456;2023-07-28T04:52:04;18.50;82.10
70079;DHT22;57451;52.496;13.456;2023-07-28T04:55:01;18.50;81.80
70079;DHT22;57451;52.496;13.456;2023-07-28T04:57:30;18.60;81.90
70079;DHT22;57451;52.496;13.456;2023-07-28T04:59:58;18.60;81.90
70079;DHT22;57451;52.496;13.456;2023-07-28T05:02:25;18.60;82.00
70079;DHT22;57451;52.496;13.456;2023-07-28T05:04:54;18.60;82.00
70079;DHT22;57451;52.496;13.456;2023-07-28T05:07:21;18.60;82.10
70079;DHT22;57451;52.496;13.456;2023-07-28T05:09:49;18.60;82.10
70079;DHT22;57451;52.496;13.456;2023-07-28T05:12:17;18.60;82.10
70079;DHT22;57451;52.496;13.456;2023-07-28T05:14:48;18.60;81.80
70079;DHT22;57451;52.496;13.456;2023-07-28T05:17:18;18.60;81.90
70079;DHT22;57451;52.496;13.456;2023-07-28T05:20:22;18.60;81.60
70079;DHT22;57451;52.496;13.456;2023-07-28T05:23:05;18.70;81.80
70079;DHT22;57451;52.496;13.456;2023-07-28T05:25:33;18.70;81.70
70079;DHT22;57451;52.496;13.456;2023-07-28T05:28:00;18.60;81.90
70079;DHT22;57451;52.496;13.456;2023-07-28T05:30:29;18.60;82.00
70079;DHT22;57451;52.496;13.456;2023-07-28T05:32:58;18.60;82.20
70079;DHT22;57451;52.496;13.456;2023-07-28T05:35:34;18.60;82.00
70079;DHT22;57451;52.496;13.456;2023-07-28T05:38:01;18.60;82.00
70079;DHT22;57451;52.496;13.456;2023-07-28T05:40:28;18.70;82.00
70079;DHT22;57451;52.496;13.456;2023-07-28T05:42:56;18.60;82.00
70079;DHT22;57451;52.496;13.456;2023-07-28T05:45:23;18.60;81.90
70079;DHT22;57451;52.496;13.456;2023-07-28T05:47:51;18.60;82.00
70079;DHT22;57451;52.496;13.456;2023-07-28T05:50:18;18.70;82.00
70079;DHT22;57451;52.496;13.456;2023-07-28T05:52:47;18.60;82.00
70079;DHT22;57451;52.496;13.456;2023-07-28T05:55:15;18.60;82.00
70079;DHT22;57451;52.496;13.456;2023-07-28T05:57:42;18.70;81.80
70079;DHT22;57451;52.496;13.456;2023-07-28T06:00:11;18.70;81.60
70079;DHT22;57451;52.496;13.456;2023-07-28T06:02:41;18.80;81.80
70079;DHT22;57451;52.496;13.456;2023-07-28T06:05:16;18.70;82.10
70079;DHT22;57451;52.496;13.456;2023-07-28T06:07:43;18.70;82.00
70079;DHT22;57451;52.496;13.456;2023-07-28T06:10:12;18.80;81.80
70079;DHT22;57451;52.496;13.456;2023-07-28T06:12:40;18.80;81.70
70079;DHT22;57451;52.496;13.456;2023-07-28T06:15:08;18.90;81.40
70079;DHT22;57451;52.496;13.456;2023-07-28T06:17:37;18.90;81.40
70079;DHT22;57451;52.496;13.456;2023-07-28T06:20:06;18.90;81.50
70079;DHT22;57451;52.496;13.456;2023-07-28T06:22:34;18.80;81.70
70079;DHT22;57451;52.496;13.456;2023-07-28T06:25:01;18.80;81.80
70079;DHT22;57451;52.496;13.456;2023-07-28T06:27:31;18.80;81.70
70079;DHT22;57451;52.496;13.456;2023-07-28T06:29:58;18.80;81.70
70079;DHT22;57451;52.496;13.456;2023-07-28T06:32:26;18.80;81.60
70079;DHT22;57451;52.496;13.456;2023-07-28T06:34:55;18.90;81.70
70079;DHT22;57451;52.496;13.456;2023-07-28T06:37:22;18.90;81.40
70079;DHT22;57451;52.496;13.456;2023-07-28T06:39:50;18.90;81.10
70079;DHT22;57451;52.496;13.456;2023-07-28T06:42:18;18.90;81.30
70079;DHT22;57451;52.496;13.456;2023-07-28T06:44:56;18.90;81.50
70079;DHT22;57451;52.496;13.456;2023-07-28T06:47:24;18.90;81.70
70079;DHT22;57451;52.496;13.456;2023-07-28T06:49:52;18.90;82.00
70079;DHT22;57451;52.496;13.456;2023-07-28T06:52:19;18.90;82.20
70079;DHT22;57451;52.496;13.456;2023-07-28T06:54:47;18.90;82.20
70079;DHT22;57451;52.496;13.456;2023-07-28T06:57:16;18.90;82.20
70079;DHT22;57451;52.496;13.456;2023-07-28T06:59:47;18.90;82.20
70079;DHT22;57451;52.496;13.456;2023-07-28T07:02:15;18.90;81.80
70079;DHT22;57451;52.496;13.456;2023-07-28T07:04:43;18.90;81.50
70079;DHT22;57451;52.496;13.456;2023-07-28T07:07:10;19.00;81.30
70079;DHT22;57451;52.496;13.456;2023-07-28T07:09:38;19.00;81.10
70079;DHT22;57451;52.496;13.456;2023-07-28T07:12:07;19.10;81.50
70079;DHT22;57451;52.496;13.456;2023-07-28T07:14:35;19.10;81.50
70079;DHT22;57451;52.496;13.456;2023-07-28T07:17:05;19.10;81.40
70079;DHT22;57451;52.496;13.456;2023-07-28T07:19:34;19.10;81.40
70079;DHT22;57451;52.496;13.456;2023-07-28T07:22:02;19.20;81.20
70079;DHT22;57451;52.496;13.456;2023-07-28T07:24:29;19.20;81.30
70079;DHT22;57451;52.496;13.456;2023-07-28T07:26:57;19.30;81.30
70079;DHT22;57451;52.496;13.456;2023-07-28T07:29:25;19.30;81.10
70079;DHT22;57451;52.496;13.456;2023-07-28T07:31:52;19.40;81.00
70079;DHT22;57451;52.496;13.456;2023-07-28T07:34:23;19.40;80.60
70079;DHT22;57451;52.496;13.456;2023-07-28T07:36:52;19.50;80.50
70079;DHT22;57451;52.496;13.456;2023-07-28T07:39:20;19.60;80.20
70079;DHT22;57451;52.496;13.456;2023-07-28T07:41:47;19.60;80.50
70079;DHT22;57451;52.496;13.456;2023-07-28T07:44:14;19.70;80.70
70079;DHT22;57451;52.496;13.456;2023-07-28T07:46:42;19.70;80.70
70079;DHT22;57451;52.496;13.456;2023-07-28T07:49:10;19.80;80.90
70079;DHT22;57451;52.496;13.456;2023-07-28T07:51:38;19.90;80.20
70079;DHT22;57451;52.496;13.456;2023-07-28T07:54:06;19.90;79.90
70079;DHT22;57451;52.496;13.456;2023-07-28T07:56:34;20.00;79.40
70079;DHT22;57451;52.496;13.456;2023-07-28T07:59:01;20.00;78.90
70079;DHT22;57451;52.496;13.456;2023-07-28T08:01:28;20.10;79.40
70079;DHT22;57451;52.496;13.456;2023-07-28T08:03:56;20.20;79.50
70079;DHT22;57451;52.496;13.456;2023-07-28T08:06:23;20.20;78.70
70079;DHT22;57451;52.496;13.456;2023-07-28T08:08:50;20.30;78.20
70079;DHT22;57451;52.496;13.456;2023-07-28T08:11:21;20.40;78.70
70079;DHT22;57451;52.496;13.456;2023-07-28T08:13:48;20.50;78.50
70079;DHT22;57451;52.496;13.456;2023-07-28T08:16:15;20.60;77.50
70079;DHT22;57451;52.496;13.456;2023-07-28T08:18:43;20.70;77.10
70079;DHT22;57451;52.496;13.456;2023-07-28T08:21:10;20.70;76.40
70079;DHT22;57451;52.496;13.456;2023-07-28T08:23:37;20.80;76.20
70079;DHT22;57451;52.496;13.456;2023-07-28T08:26:05;20.90;76.60
70079;DHT22;57451;52.496;13.456;2023-07-28T08:28:33;21.00;76.70
70079;DHT22;57451;52.496;13.456;2023-07-28T08:31:01;21.00;74.80
70079;DHT22;57451;52.496;13.456;2023-07-28T08:33:28;21.10;75.10
70079;DHT22;57451;52.496;13.456;2023-07-28T08:35:56;21.20;75.00
70079;DHT22;57451;52.496;13.456;2023-07-28T08:38:23;21.30;74.20
70079;DHT22;57451;52.496;13.456;2023-07-28T08:40:50;21.30;73.70
70079;DHT22;57451;52.496;13.456;2023-07-28T08:43:18;21.20;73.50
70079;DHT22;57451;52.496;13.456;2023-07-28T08:45:47;21.20;73.80
70079;DHT22;57451;52.496;13.456;2023-07-28T08:48:14;21.20;73.20
70079;DHT22;57451;52.496;13.456;2023-07-28T08:50:42;21.20;74.00
70079;DHT22;57451;52.496;13.456;2023-07-28T08:53:09;21.30;73.80
70079;DHT22;57451;52.496;13.456;2023-07-28T08:55:37;21.30;73.10
70079;DHT22;57451;52.496;13.456;2023-07-28T08:58:17;21.40;73.20
70079;DHT22;57451;52.496;13.456;2023-07-28T09:00:48;21.40;73.00
70079;DHT22;57451;52.496;13.456;2023-07-28T09:03:17;21.50;72.80
70079;DHT22;57451;52.496;13.456;2023-07-28T09:05:45;21.60;72.50
70079;DHT22;57451;52.496;13.456;2023-07-28T09:08:13;21.60;71.80
70079;DHT22;57451;52.496;13.456;2023-07-28T09:10:42;21.60;71.70
70079;DHT22;57451;52.496;13.456;2023-07-28T09:13:10;21.60;71.50
70079;DHT22;57451;52.496;13.456;2023-07-28T09:15:42;21.60;71.70
70079;DHT22;57451;52.496;13.456;2023-07-28T09:18:13;21.70;72.20
70079;DHT22;57451;52.496;13.456;2023-07-28T09:20:41;21.70;72.10
70079;DHT22;57451;52.496;13.456;2023-07-28T09:23:08;21.60;72.20
70079;DHT22;57451;52.496;13.456;2023-07-28T09:25:37;21.70;72.50
70079;DHT22;57451;52.496;13.456;2023-07-28T09:28:04;21.70;73.00
70079;DHT22;57451;52.496;13.456;2023-07-28T09:30:46;21.70;73.00
70079;DHT22;57451;52.496;13.456;2023-07-28T09:33:29;21.70;73.00
70079;DHT22;57451;52.496;13.456;2023-07-28T09:35:58;21.70;73.20
70079;DHT22;57451;52.496;13.456;2023-07-28T09:38:36;21.70;72.70
70079;DHT22;57451;52.496;13.456;2023-07-28T09:41:04;21.80;72.90
70079;DHT22;57451;52.496;13.456;2023-07-28T09:43:36;21.90;72.90
70079;DHT22;57451;52.496;13.456;2023-07-28T09:46:05;21.90;71.70
70079;DHT22;57451;52.496;13.456;2023-07-28T09:48:37;21.90;71.80
70079;DHT22;57451;52.496;13.456;2023-07-28T09:51:08;22.00;72.10
70079;DHT22;57451;52.496;13.456;2023-07-28T09:53:45;22.10;72.00
70079;DHT22;57451;52.496;13.456;2023-07-28T09:56:17;22.10;71.40
70079;DHT22;57451;52.496;13.456;2023-07-28T09:58:54;22.10;71.50
70079;DHT22;57451;52.496;13.456;2023-07-28T10:01:28;22.20;71.40
70079;DHT22;57451;52.496;13.456;2023-07-28T10:03:58;22.20;71.30
70079;DHT22;57451;52.496;13.456;2023-07-28T10:06:25;22.30;70.60
70079;DHT22;57451;52.496;13.456;2023-07-28T10:08:53;22.20;70.50
70079;DHT22;57451;52.496;13.456;2023-07-28T10:11:21;22.20;69.90
70079;DHT22;57451;52.496;13.456;2023-07-28T10:13:51;22.20;70.00
70079;DHT22;57451;52.496;13.456;2023-07-28T10:16:30;22.20;70.20
70079;DHT22;57451;52.496;13.456;2023-07-28T10:18:59;22.20;70.40
70079;DHT22;57451;52.496;13.456;2023-07-28T10:21:28;22.20;70.10
70079;DHT22;57451;52.496;13.456;2023-07-28T10:23:57;22.10;70.40
70079;DHT22;57451;52.496;13.456;2023-07-28T10:26:36;22.20;70.50
70079;DHT22;57451;52.496;13.456;2023-07-28T10:29:12;22.20;70.80
70079;DHT22;57451;52.496;13.456;2023-07-28T10:31:52;22.30;70.40
70079;DHT22;57451;52.496;13.456;2023-07-28T10:34:22;22.40;70.60
70079;DHT22;57451;52.496;13.456;2023-07-28T10:36:57;22.40;69.90
70079;DHT22;57451;52.496;13.456;2023-07-28T10:39:25;22.40;69.60
70079;DHT22;57451;52.496;13.456;2023-07-28T10:42:02;22.30;69.60
70079;DHT22;57451;52.496;13.456;2023-07-28T10:44:30;22.20;70.60
70079;DHT22;57451;52.496;13.456;2023-07-28T10:46:58;22.10;71.80
70079;DHT22;57451;52.496;13.456;2023-07-28T10:49:27;22.10;71.90
70079;DHT22;57451;52.496;13.456;2023-07-28T10:51:55;22.20;72.50
70079;DHT22;57451;52.496;13.456;2023-07-28T10:54:22;22.20;73.10
70079;DHT22;57451;52.496;13.456;2023-07-28T10:56:50;22.30;74.60
70079;DHT22;57451;52.496;13.456;2023-07-28T10:59:17;22.30;73.60
70079;DHT22;57451;52.496;13.456;2023-07-28T11:01:44;22.40;73.40
70079;DHT22;57451;52.496;13.456;2023-07-28T11:04:14;22.40;72.70
70079;DHT22;57451;52.496;13.456;2023-07-28T11:06:44;22.50;72.70
70079;DHT22;57451;52.496;13.456;2023-07-28T11:09:14;22.50;72.60
70079;DHT22;57451;52.496;13.456;2023-07-28T11:11:42;22.30;71.40
70079;DHT22;57451;52.496;13.456;2023-07-28T11:14:15;22.30;71.40
70079;DHT22;57451;52.496;13.456;2023-07-28T11:16:46;22.40;71.30
70079;DHT22;57451;52.496;13.456;2023-07-28T11:19:15;22.30;71.30
70079;DHT22;57451;52.496;13.456;2023-07-28T11:21:46;22.20;71.30
70079;DHT22;57451;52.496;13.456;2023-07-28T11:24:19;22.10;71.60
70079;DHT22;57451;52.496;13.456;2023-07-28T11:26:48;22.10;71.80
70079;DHT22;57451;52.496;13.456;2023-07-28T11:29:18;22.00;72.10
70079;DHT22;57451;52.496;13.456;2023-07-28T11:31:48;22.00;72.40
70079;DHT22;57451;52.496;13.456;2023-07-28T11:34:18;22.00;72.60
70079;DHT22;57451;52.496;13.456;2023-07-28T11:36:54;21.90;72.60
70079;DHT22;57451;52.496;13.456;2023-07-28T11:39:23;21.80;73.00
70079;DHT22;57451;52.496;13.456;2023-07-28T11:41:51;21.70;73.40
70079;DHT22;57451;52.496;13.456;2023-07-28T11:44:22;21.70;73.60
70079;DHT22;57451;52.496;13.456;2023-07-28T11:46:51;21.70;73.70
70079;DHT22;57451;52.496;13.456;2023-07-28T11:49:22;21.60;74.10
70079;DHT22;57451;52.496;13.456;2023-07-28T11:51:52;21.60;74.60
70079;DHT22;57451;52.496;13.456;2023-07-28T11:54:24;21.50;75.10
70079;DHT22;57451;52.496;13.456;2023-07-28T11:56:55;21.50;75.00
70079;DHT22;57451;52.496;13.456;2023-07-28T11:59:22;21.60;74.50
70079;DHT22;57451;52.496;13.456;2023-07-28T12:01:55;21.60;74.40
70079;DHT22;57451;52.496;13.456;2023-07-28T12:04:29;21.70;74.00
70079;DHT22;57451;52.496;13.456;2023-07-28T12:07:03;21.70;74.40
70079;DHT22;57451;52.496;13.456;2023-07-28T12:09:47;21.80;74.20
70079;DHT22;57451;52.496;13.456;2023-07-28T12:12:30;21.90;74.40
70079;DHT22;57451;52.496;13.456;2023-07-28T12:15:22;22.00;74.80
70079;DHT22;57451;52.496;13.456;2023-07-28T12:18:10;22.10;74.40
70079;DHT22;57451;52.496;13.456;2023-07-28T12:20:42;22.20;74.00
70079;DHT22;57451;52.496;13.456;2023-07-28T12:23:14;22.30;74.30
70079;DHT22;57451;52.496;13.456;2023-07-28T12:25:47;22.40;74.00
70079;DHT22;57451;52.496;13.456;2023-07-28T12:28:15;22.40;72.90
70079;DHT22;57451;52.496;13.456;2023-07-28T12:30:46;22.50;73.10
70079;DHT22;57451;52.496;13.456;2023-07-28T12:33:17;22.60;73.50
70079;DHT22;57451;52.496;13.456;2023-07-28T12:35:47;22.70;71.90
70079;DHT22;57451;52.496;13.456;2023-07-28T12:38:17;22.80;71.30
70079;DHT22;57451;52.496;13.456;2023-07-28T12:40:49;22.70;70.00
70079;DHT22;57451;52.496;13.456;2023-07-28T12:43:19;22.70;70.00
70079;DHT22;57451;52.496;13.456;2023-07-28T12:45:49;22.70;69.90
70079;DHT22;57451;52.496;13.456;2023-07-28T12:48:20;22.70;69.90
70079;DHT22;57451;52.496;13.456;2023-07-28T12:50:50;22.70;70.50
70079;DHT22;57451;52.496;13.456;2023-07-28T12:53:30;22.70;70.70
70079;DHT22;57451;52.496;13.456;2023-07-28T12:55:58;22.70;71.20
70079;DHT22;57451;52.496;13.456;2023-07-28T12:58:27;22.70;71.00
70079;DHT22;57451;52.496;13.456;2023-07-28T13:00:58;22.70;71.30
70079;DHT22;57451;52.496;13.456;2023-07-28T13:03:29;22.70;71.30
70079;DHT22;57451;52.496;13.456;2023-07-28T13:05:57;22.70;71.50
70079;DHT22;57451;52.496;13.456;2023-07-28T13:08:24;22.80;71.50
70079;DHT22;57451;52.496;13.456;2023-07-28T13:10:54;22.90;71.50
70079;DHT22;57451;52.496;13.456;2023-07-28T13:13:26;22.90;71.20
70079;DHT22;57451;52.496;13.456;2023-07-28T13:15:55;22.90;71.40
70079;DHT22;57451;52.496;13.456;2023-07-28T13:18:23;23.00;70.80
70079;DHT22;57451;52.496;13.456;2023-07-28T13:20:52;23.00;69.90
70079;DHT22;57451;52.496;13.456;2023-07-28T13:23:19;23.00;69.80
70079;DHT22;57451;52.496;13.456;2023-07-28T13:25:47;23.00;69.70
70079;DHT22;57451;52.496;13.456;2023-07-28T13:28:14;23.10;69.80
70079;DHT22;57451;52.496;13.456;2023-07-28T13:30:43;23.00;69.30
70079;DHT22;57451;52.496;13.456;2023-07-28T13:33:10;23.10;69.50
70079;DHT22;57451;52.496;13.456;2023-07-28T13:35:38;23.10;69.20
70079;DHT22;57451;52.496;13.456;2023-07-28T13:38:05;23.10;70.20
70079;DHT22;57451;52.496;13.456;2023-07-28T13:40:32;23.10;69.90
70079;DHT22;57451;52.496;13.456;2023-07-28T13:43:04;23.20;70.50
70079;DHT22;57451;52.496;13.456;2023-07-28T13:45:33;23.30;70.30
70079;DHT22;57451;52.496;13.456;2023-07-28T13:48:02;23.30;70.60
70079;DHT22;57451;52.496;13.456;2023-07-28T13:50:29;23.40;70.20
70079;DHT22;57451;52.496;13.456;2023-07-28T13:53:00;23.40;70.00
70079;DHT22;57451;52.496;13.456;2023-07-28T13:55:47;23.40;69.90
70079;DHT22;57451;52.496;13.456;2023-07-28T13:58:24;23.50;70.10
70079;DHT22;57451;52.496;13.456;2023-07-28T14:00:51;23.50;70.10
70079;DHT22;57451;52.496;13.456;2023-07-28T14:03:20;23.60;70.10
70079;DHT22;57451;52.496;13.456;2023-07-28T14:05:48;23.60;70.10
70079;DHT22;57451;52.496;13.456;2023-07-28T14:08:16;23.70;69.90
70079;DHT22;57451;52.496;13.456;2023-07-28T14:10:44;23.80;69.90
70079;DHT22;57451;52.496;13.456;2023-07-28T14:13:12;23.70;69.30
70079;DHT22;57451;52.496;13.456;2023-07-28T14:15:40;23.70;69.20
70079;DHT22;57451;52.496;13.456;2023-07-28T14:18:08;23.80;69.20
70079;DHT22;57451;52.496;13.456;2023-07-28T14:20:37;23.80;68.70
70079;DHT22;57451;52.496;13.456;2023-07-28T14:23:20;23.80;68.20
70079;DHT22;57451;52.496;13.456;2023-07-28T14:25:48;23.80;68.00
70079;DHT22;57451;52.496;13.456;2023-07-28T14:28:15;23.70;68.40
70079;DHT22;57451;52.496;13.456;2023-07-28T14:30:43;23.80;68.40
70079;DHT22;57451;52.496;13.456;2023-07-28T14:33:14;23.80;68.10
70079;DHT22;57451;52.496;13.456;2023-07-28T14:35:44;23.80;67.00
70079;DHT22;57451;52.496;13.456;2023-07-28T14:38:12;23.80;67.00
70079;DHT22;57451;52.496;13.456;2023-07-28T14:40:40;23.90;66.70
70079;DHT22;57451;52.496;13.456;2023-07-28T14:43:07;24.00;66.50
70079;DHT22;57451;52.496;13.456;2023-07-28T14:45:35;24.10;66.40
70079;DHT22;57451;52.496;13.456;2023-07-28T14:48:03;24.10;65.50
70079;DHT22;57451;52.496;13.456;2023-07-28T14:50:30;24.20;65.70
70079;DHT22;57451;52.496;13.456;2023-07-28T14:52:59;24.20;65.50
70079;DHT22;57451;52.496;13.456;2023-07-28T14:55:27;24.30;65.40
70079;DHT22;57451;52.496;13.456;2023-07-28T14:57:54;24.40;65.30
70079;DHT22;57451;52.496;13.456;2023-07-28T15:00:21;24.50;65.90
70079;DHT22;57451;52.496;13.456;2023-07-28T15:02:49;24.60;65.10
70079;DHT22;57451;52.496;13.456;2023-07-28T15:05:16;24.70;65.20
70079;DHT22;57451;52.496;13.456;2023-07-28T15:07:44;24.80;64.80
70079;DHT22;57451;52.496;13.456;2023-07-28T15:10:13;24.80;65.00
70079;DHT22;57451;52.496;13.456;2023-07-28T15:12:40;25.00;64.40
70079;DHT22;57451;52.496;13.456;2023-07-28T15:15:11;25.00;63.90
70079;DHT22;57451;52.496;13.456;2023-07-28T15:17:38;25.10;62.60
70079;DHT22;57451;52.496;13.456;2023-07-28T15:20:06;25.10;63.50
70079;DHT22;57451;52.496;13.456;2023-07-28T15:22:34;25.20;63.60
70079;DHT22;57451;52.496;13.456;2023-07-28T15:25:01;25.20;62.50
70079;DHT22;57451;52.496;13.456;2023-07-28T15:27:30;25.30;62.80
70079;DHT22;57451;52.496;13.456;2023-07-28T15:29:58;25.30;62.80